createdAt,value
2022-08-25T00:02:11.213Z,100.00
2022-08-25T00:07:12.844Z,100.00
2022-08-25T00:12:20.301Z,100.00
2022-08-25T00:17:21.898Z,100.00
2022-08-25T00:22:23.578Z,100.00
2022-08-25T00:27:25.989Z,100.00
2022-08-25T00:32:27.663Z,100.00
2022-08-25T00:37:29.335Z,100.00
2022-08-25T00:42:31.679Z,100.00
2022-08-25T00:47:33.399Z,100.00
2022-08-25T00:52:43.067Z,100.00
2022-08-25T00:58:14.084Z,100.00
2022-08-25T01:03:19.108Z,100.00
2022-08-25T01:08:25.576Z,100.00
2022-08-25T01:13:47.119Z,100.00
2022-08-25T01:18:51.883Z,100.00
2022-08-25T01:23:58.140Z,100.00
2022-08-25T01:29:20.305Z,100.00
2022-08-25T01:34:22.281Z,100.00
2022-08-25T01:39:25.183Z,100.00
2022-08-25T01:44:26.807Z,100.00
2022-08-25T01:49:28.753Z,100.00
2022-08-25T01:54:30.350Z,100.00
2022-08-25T01:59:32.112Z,100.00
2022-08-25T02:04:34.387Z,100.00
2022-08-25T02:09:37.651Z,100.00
2022-08-25T02:14:39.293Z,100.00
2022-08-25T02:19:43.228Z,100.00
2022-08-25T02:24:44.948Z,100.00
2022-08-25T02:29:47.318Z,100.00
2022-08-25T02:34:48.957Z,100.00
2022-08-25T02:39:50.576Z,100.00
2022-08-25T02:44:52.646Z,100.00
2022-08-25T02:49:54.796Z,100.00
2022-08-25T02:54:56.439Z,100.00
2022-08-25T02:59:58.990Z,100.00
2022-08-25T03:05:00.857Z,100.00
2022-08-25T03:10:08.919Z,100.00
2022-08-25T03:15:12.824Z,100.00
2022-08-25T03:20:15.823Z,100.00
2022-08-25T03:25:37.315Z,100.00
2022-08-25T03:30:38.958Z,100.00
2022-08-25T03:35:40.787Z,100.00
2022-08-25T03:40:42.512Z,100.00
2022-08-25T03:45:46.464Z,100.00
2022-08-25T03:50:51.959Z,100.00
2022-08-25T03:55:53.869Z,100.00
2022-08-25T04:00:56.810Z,100.00
2022-08-25T04:06:02.649Z,100.00
2022-08-25T04:11:14.310Z,100.00
2022-08-25T04:16:25.309Z,100.00
2022-08-25T04:21:27.999Z,100.00
2022-08-25T04:26:36.773Z,100.00
2022-08-25T04:31:41.141Z,100.00
2022-08-25T04:36:42.773Z,100.00
2022-08-25T04:41:44.364Z,100.00
2022-08-25T04:46:46.002Z,100.00
2022-08-25T04:51:47.864Z,100.00
2022-08-25T04:56:54.061Z,100.00
2022-08-25T05:01:57.472Z,100.00
2022-08-25T05:07:00.362Z,100.00
2022-08-25T05:12:02.845Z,100.00
2022-08-25T05:17:04.845Z,100.00
2022-08-25T05:22:06.845Z,100.00
2022-08-25T05:27:08.433Z,100.00
2022-08-25T05:32:10.365Z,100.00
2022-08-25T05:37:12.372Z,100.00
2022-08-25T05:42:14.119Z,100.00
2022-08-25T05:47:15.733Z,100.00
2022-08-25T05:52:20.032Z,100.00
2022-08-25T05:57:21.906Z,100.00
2022-08-25T06:02:42.014Z,100.00
2022-08-25T06:07:48.509Z,100.00
2022-08-25T06:12:50.701Z,100.00
2022-08-25T06:17:55.725Z,100.00
2022-08-25T06:22:59.423Z,97.30
2022-08-25T06:28:01.071Z,96.27
2022-08-25T06:33:02.716Z,100.00
2022-08-25T06:38:04.445Z,99.09
2022-08-25T06:43:08.925Z,98.46
2022-08-25T06:48:11.212Z,97.75
2022-08-25T06:53:13.277Z,95.00
2022-08-25T06:58:14.846Z,96.59
2022-08-25T07:03:16.598Z,96.63
2022-08-25T07:08:19.319Z,94.93
2022-08-25T07:13:21.122Z,94.33
2022-08-25T07:18:22.831Z,93.89
2022-08-25T07:23:25.843Z,91.90
2022-08-25T07:28:27.495Z,91.52
2022-08-25T07:33:29.097Z,90.00
2022-08-25T07:38:31.241Z,89.93
2022-08-25T07:43:32.941Z,86.94
2022-08-25T07:48:34.519Z,87.07
2022-08-25T07:53:37.690Z,88.65
2022-08-25T07:58:40.833Z,85.04
2022-08-25T08:03:50.960Z,84.56
2022-08-25T08:08:54.612Z,84.52
2022-08-25T08:13:59.955Z,81.89
2022-08-25T08:19:02.985Z,75.79
2022-08-25T08:24:14.891Z,78.50
2022-08-25T08:29:27.843Z,74.91
2022-08-25T08:34:30.517Z,73.76
2022-08-25T08:39:32.238Z,73.34
2022-08-25T08:44:46.651Z,72.71
2022-08-25T08:50:23.965Z,72.51
2022-08-25T08:55:39.066Z,73.57
2022-08-25T09:00:51.849Z,70.18
2022-08-25T09:05:59.215Z,68.10
2022-08-25T09:11:30.487Z,71.25
2022-08-25T09:16:57.531Z,69.73
2022-08-25T09:22:35.587Z,66.30
2022-08-25T09:28:08.454Z,70.23
2022-08-25T09:33:12.171Z,66.55
2022-08-25T09:38:13.871Z,64.20
2022-08-25T09:43:37.109Z,65.25
2022-08-25T09:48:56.435Z,66.33
2022-08-25T09:54:10.749Z,66.13
2022-08-25T09:59:19.018Z,64.33
2022-08-25T10:04:28.801Z,64.07
2022-08-25T10:09:34.572Z,59.07
2022-08-25T10:14:44.676Z,57.88
2022-08-25T10:19:46.350Z,54.35
2022-08-25T10:24:51.314Z,55.14
2022-08-25T10:30:17.989Z,53.60
2022-08-25T10:35:28.075Z,52.98
2022-08-25T10:40:47.655Z,51.93
2022-08-25T10:45:56.631Z,53.60
2022-08-25T10:51:28.446Z,53.39
2022-08-25T10:56:36.920Z,52.03
2022-08-25T11:02:06.579Z,52.29
2022-08-25T11:07:32.573Z,53.56
2022-08-25T11:12:45.935Z,52.32
2022-08-25T11:18:03.735Z,53.79
2022-08-25T11:23:21.373Z,54.40
2022-08-25T11:28:28.429Z,54.30
2022-08-25T11:33:31.183Z,54.83
2022-08-25T11:38:59.864Z,52.14
2022-08-25T11:44:30.147Z,53.37
2022-08-25T11:49:51.265Z,51.64
2022-08-25T11:54:52.952Z,48.21
2022-08-25T11:59:57.131Z,48.46
2022-08-25T12:04:58.953Z,52.28
2022-08-25T12:10:03.471Z,50.07
2022-08-25T12:15:26.975Z,48.02
2022-08-25T12:20:53.562Z,49.24
2022-08-25T12:25:58.796Z,50.48
2022-08-25T12:31:09.032Z,48.39
2022-08-25T12:36:25.930Z,48.83
2022-08-25T12:41:31.545Z,47.69
2022-08-25T12:46:39.442Z,47.93
2022-08-25T12:51:59.999Z,49.25
2022-08-25T12:57:08.066Z,50.02
2022-08-25T13:02:52.230Z,49.77
2022-08-25T13:08:34.023Z,48.31
2022-08-25T13:14:04.228Z,46.97
2022-08-25T13:19:07.063Z,47.16
2022-08-25T13:24:26.932Z,46.54
2022-08-25T13:29:35.829Z,47.00
2022-08-25T13:34:43.448Z,46.03
2022-08-25T13:39:56.334Z,47.36
2022-08-25T13:44:58.527Z,48.16
2022-08-25T13:50:20.777Z,46.46
2022-08-25T13:55:51.236Z,44.90
2022-08-25T14:01:23.133Z,46.63
2022-08-25T14:06:29.426Z,48.70
2022-08-25T14:11:33.311Z,48.47
2022-08-25T14:17:16.516Z,49.75
2022-08-25T14:22:28.325Z,50.37
2022-08-25T14:27:29.939Z,50.15
2022-08-25T14:32:31.680Z,49.91
2022-08-25T14:37:34.826Z,50.32
2022-08-25T14:42:36.399Z,51.85
2022-08-25T14:47:38.613Z,51.62
2022-08-25T14:52:42.094Z,49.52
2022-08-25T14:57:44.363Z,49.73
2022-08-25T15:02:49.401Z,51.50
2022-08-25T15:08:12.173Z,50.56
2022-08-25T15:13:14.719Z,50.53
2022-08-25T15:18:17.232Z,50.93
2022-08-25T15:23:19.306Z,52.24
2022-08-25T15:28:22.467Z,52.30
2022-08-25T15:33:24.583Z,51.67
2022-08-25T15:38:26.162Z,53.17
2022-08-25T15:43:28.045Z,54.59
2022-08-25T15:48:29.706Z,54.16
2022-08-25T15:53:31.425Z,54.43
2022-08-25T15:58:35.335Z,55.77
2022-08-25T16:03:37.219Z,56.03
2022-08-25T16:08:39.449Z,56.37
2022-08-25T16:13:44.268Z,56.22
2022-08-25T16:18:46.371Z,55.79
2022-08-25T16:23:48.838Z,56.40
2022-08-25T16:28:50.771Z,58.02
2022-08-25T16:33:56.042Z,58.18
2022-08-25T16:39:01.408Z,59.62
2022-08-25T16:44:07.754Z,58.89
2022-08-25T16:49:14.507Z,59.61
2022-08-25T16:54:35.975Z,59.88
2022-08-25T16:59:37.696Z,60.91
2022-08-25T17:04:40.697Z,61.26
2022-08-25T17:09:42.485Z,61.52
2022-08-25T17:14:44.069Z,61.90
2022-08-25T17:19:48.032Z,62.98
2022-08-25T17:24:59.440Z,62.87
2022-08-25T17:30:03.071Z,63.70
2022-08-25T17:35:06.055Z,63.48
2022-08-25T17:40:09.688Z,63.95
2022-08-25T17:45:12.736Z,64.50
2022-08-25T17:50:15.056Z,64.68
2022-08-25T17:55:23.295Z,65.07
2022-08-25T18:00:25.348Z,65.84
2022-08-25T18:05:27.917Z,67.04
2022-08-25T18:10:29.972Z,68.98
2022-08-25T18:15:33.915Z,69.27
2022-08-25T18:20:35.583Z,70.50
2022-08-25T18:25:37.389Z,70.95
2022-08-25T18:30:43.820Z,71.52
2022-08-25T18:35:46.430Z,73.40
2022-08-25T18:40:56.206Z,73.18
2022-08-25T18:46:03.601Z,74.66
2022-08-25T18:51:07.480Z,75.08
2022-08-25T18:56:12.088Z,76.44
2022-08-25T19:01:18.194Z,76.50
2022-08-25T19:06:20.645Z,77.72
2022-08-25T19:11:23.206Z,78.02
2022-08-25T19:16:41.214Z,78.96
2022-08-25T19:21:45.484Z,79.10
2022-08-25T19:26:54.478Z,80.58
2022-08-25T19:31:57.341Z,81.65
2022-08-25T19:37:04.645Z,82.28
2022-08-25T19:42:07.451Z,83.10
2022-08-25T19:47:09.337Z,83.56
2022-08-25T19:52:17.170Z,84.51
2022-08-25T19:57:28.266Z,85.44
2022-08-25T20:02:44.296Z,85.80
2022-08-25T20:07:45.949Z,87.02
2022-08-25T20:12:47.865Z,89.84
2022-08-25T20:17:49.672Z,89.85
2022-08-25T20:22:51.574Z,90.70
2022-08-25T20:27:56.462Z,91.06
2022-08-25T20:32:58.294Z,91.35
2022-08-25T20:38:00.965Z,91.63
2022-08-25T20:43:04.356Z,91.83
2022-08-25T20:48:06.154Z,92.12
2022-08-25T20:53:10.189Z,93.14
2022-08-25T20:58:16.074Z,94.61
2022-08-25T21:03:17.769Z,94.16
2022-08-25T21:08:21.702Z,95.57
2022-08-25T21:13:25.749Z,95.52
2022-08-25T21:18:31.531Z,95.98
2022-08-25T21:23:34.468Z,96.56
2022-08-25T21:28:36.187Z,98.27
2022-08-25T21:33:38.867Z,99.55
2022-08-25T21:38:40.853Z,98.73
2022-08-25T21:43:45.506Z,99.22
2022-08-25T21:48:50.166Z,100.00
2022-08-25T21:54:08.811Z,100.00
2022-08-25T21:59:14.192Z,100.00
2022-08-25T22:04:15.915Z,100.00
2022-08-25T22:09:18.035Z,100.00
2022-08-25T22:14:20.615Z,100.00
2022-08-25T22:19:23.122Z,100.00
2022-08-25T22:24:28.467Z,100.00
2022-08-25T22:29:30.972Z,100.00
2022-08-25T22:34:34.455Z,100.00
2022-08-25T22:39:36.194Z,100.00
2022-08-25T22:44:42.575Z,100.00
2022-08-25T22:49:44.528Z,100.00
2022-08-25T22:54:46.980Z,100.00
2022-08-25T22:59:48.598Z,100.00
2022-08-25T23:04:51.255Z,100.00
2022-08-25T23:10:03.061Z,100.00
2022-08-25T23:15:08.783Z,100.00
2022-08-25T23:20:29.182Z,100.00
2022-08-25T23:25:32.758Z,100.00
2022-08-25T23:30:35.139Z,100.00
2022-08-25T23:35:44.406Z,100.00
2022-08-25T23:40:46.605Z,100.00
2022-08-25T23:45:49.512Z,100.00
2022-08-25T23:50:54.121Z,100.00
2022-08-25T23:55:57.396Z,100.00
